Time;durP1;ratioP1;P1;durP2;ratioP2;P2;SDS_P1;SDS_P2;PMS_P1;PMS_P2;Temp;Humidity;BMP_temperature;BMP_pressure;BME280_temperature;BME280_humidity;BME280_pressure;Samples;Min_cycle;Max_cycle;Signal;HPM_P1;HPM_P2
2021/12/13 00:00:06;;;;;;;49.38;39.45;;;;;;;8.51;100.00;102475.59;5011492;28;20489;-59
2021/12/13 00:02:36;;;;;;;46.85;38.10;;;;;;;8.51;100.00;102470.44;5010453;28;20442;-59
2021/12/13 00:05:50;;;;;;;48.10;37.63;;;;;;;8.51;100.00;102475.59;5010647;28;20079;-59
2021/12/13 00:08:31;;;;;;;45.05;37.85;;;;;;;8.47;100.00;102473.63;4991461;28;20120;-58
2021/12/13 00:11:21;;;;;;;46.85;36.33;;;;;;;8.46;100.00;102475.31;5027233;28;20064;-60
2021/12/13 00:13:56;;;;;;;48.05;35.58;;;;;;;8.44;100.00;102469.13;5012908;28;20064;-59
2021/12/13 00:16:29;;;;;;;46.97;36.85;;;;;;;8.44;100.00;102465.69;5024752;28;20504;-59
2021/12/13 00:18:59;;;;;;;44.83;36.08;;;;;;;8.41;100.00;102472.44;5019451;28;20057;-59
2021/12/13 00:21:33;;;;;;;44.58;35.78;;;;;;;8.43;100.00;102471.63;5001930;28;20037;-59
2021/12/13 00:24:05;;;;;;;47.05;37.13;;;;;;;8.41;100.00;102463.78;5025187;28;20037;-57
2021/12/13 00:26:44;;;;;;;45.05;35.00;;;;;;;8.39;100.00;102473.09;5024157;28;20045;-59
2021/12/13 00:29:17;;;;;;;44.03;33.75;;;;;;;8.39;100.00;102476.59;5010538;28;20042;-59
2021/12/13 00:32:05;;;;;;;42.80;32.92;;;;;;;8.38;100.00;102469.63;5016325;28;20474;-59
2021/12/13 00:34:40;;;;;;;40.45;34.10;;;;;;;8.36;100.00;102468.66;5023400;28;20036;-58
2021/12/13 00:37:10;;;;;;;42.60;34.33;;;;;;;8.35;100.00;102474.59;5026380;28;20506;-60
2021/12/13 00:39:45;;;;;;;41.63;32.10;;;;;;;8.36;100.00;102468.66;5025188;28;20128;-59
2021/12/13 00:42:13;;;;;;;39.58;31.10;;;;;;;8.35;100.00;102481.44;5019679;28;20498;-58
2021/12/13 00:44:46;;;;;;;37.13;30.75;;;;;;;8.33;100.00;102483.03;5014575;28;20058;-58
2021/12/13 00:47:27;;;;;;;37.03;30.77;;;;;;;8.31;100.00;102493.25;5010836;28;20029;-59
2021/12/13 00:50:14;;;;;;;40.00;30.77;;;;;;;8.33;100.00;102486.50;5009852;28;20048;-59
2021/12/13 00:52:43;;;;;;;39.55;30.90;;;;;;;8.30;100.00;102494.03;5008761;28;20030;-58
2021/12/13 00:55:16;;;;;;;40.35;30.75;;;;;;;8.30;100.00;102491.47;5007801;28;20033;-60
2021/12/13 00:57:50;;;;;;;38.47;29.88;;;;;;;8.29;100.00;102492.28;5009529;28;20104;-59
2021/12/13 01:00:30;;;;;;;37.58;29.95;;;;;;;8.27;100.00;102486.09;5010034;28;20026;-58
2021/12/13 01:03:12;;;;;;;37.53;31.05;;;;;;;8.25;100.00;102493.75;5008940;28;20026;-57
2021/12/13 01:05:40;;;;;;;39.92;30.17;;;;;;;8.26;100.00;102495.53;5009878;28;20040;-59
2021/12/13 01:08:49;;;;;;;41.08;31.95;;;;;;;8.26;100.00;102494.63;5008341;28;20403;-58
2021/12/13 01:11:21;;;;;;;39.83;29.55;;;;;;;8.24;100.00;102491.06;5009444;28;20034;-58
2021/12/13 01:14:00;;;;;;;38.72;30.70;;;;;;;8.23;100.00;102495.31;5009684;28;20029;-59
2021/12/13 01:16:48;;;;;;;39.42;30.60;;;;;;;8.23;100.00;102499.59;5008978;28;20030;-57
2021/12/13 01:19:30;;;;;;;40.40;31.98;;;;;;;8.21;100.00;102502.06;5009072;28;20034;-58
2021/12/13 01:22:47;;;;;;;42.58;30.60;;;;;;;8.20;100.00;102501.97;5008739;28;20509;-57
2021/12/13 01:25:21;;;;;;;41.38;31.20;;;;;;;8.17;100.00;102497.47;5004551;28;20038;-58
2021/12/13 01:27:50;;;;;;;42.40;31.60;;;;;;;8.17;100.00;102508.72;5008761;28;20028;-59
2021/12/13 01:30:21;;;;;;;42.20;30.38;;;;;;;8.14;100.00;102500.75;5009192;28;20096;-58
2021/12/13 01:32:51;;;;;;;40.47;31.73;;;;;;;8.13;100.00;102498.94;5009342;28;20422;-58
2021/12/13 01:35:29;;;;;;;38.53;30.40;;;;;;;8.15;100.00;102512.88;5008414;28;20026;-58
2021/12/13 01:38:02;;;;;;;42.10;29.92;;;;;;;8.15;100.00;102507.69;5009299;28;20041;-58
2021/12/13 01:40:30;;;;;;;43.45;31.95;;;;;;;8.12;100.00;102510.06;5008675;28;20467;-58
2021/12/13 01:43:19;;;;;;;43.00;32.40;;;;;;;8.12;100.00;102511.75;5008890;28;20030;-58
2021/12/13 01:45:47;;;;;;;41.45;31.92;;;;;;;8.13;100.00;102511.84;5008683;28;20521;-58
2021/12/13 01:48:23;;;;;;;41.58;30.80;;;;;;;8.11;100.00;102509.97;5007958;28;20477;-58
2021/12/13 01:50:53;;;;;;;42.65;30.77;;;;;;;8.11;100.00;102517.72;5007718;28;20026;-58
2021/12/13 01:53:30;;;;;;;41.92;32.22;;;;;;;8.10;100.00;102519.41;5007015;28;20029;-58
2021/12/13 01:55:57;;;;;;;45.67;31.58;;;;;;;8.09;100.00;102520.19;5008840;28;20029;-58
2021/12/13 02:01:10;;;;;;;47.97;31.63;;;;;;;8.08;100.00;102518.41;5008086;28;20037;-59
2021/12/13 02:03:52;;;;;;;46.97;31.60;;;;;;;8.08;100.00;102517.53;5006778;28;20542;-59
2021/12/13 02:06:27;;;;;;;43.13;32.47;;;;;;;8.06;100.00;102519.97;5007715;28;20441;-60
2021/12/13 02:08:56;;;;;;;44.08;32.72;;;;;;;8.04;100.00;102513.81;5001896;28;20030;-59
2021/12/13 02:11:23;;;;;;;46.65;34.13;;;;;;;8.02;100.00;102518.84;5008478;28;20525;-58
2021/12/13 02:14:06;;;;;;;49.03;34.22;;;;;;;8.02;100.00;102528.31;5008252;28;20119;-58
2021/12/13 02:19:25;;;;;;;44.83;34.72;;;;;;;8.02;100.00;102526.59;5009169;28;20154;-59
2021/12/13 02:22:02;;;;;;;47.95;34.90;;;;;;;8.01;100.00;102523.91;5007538;28;20470;-59
2021/12/13 02:24:28;;;;;;;45.78;32.50;;;;;;;7.99;100.00;102520.31;5006847;28;20085;-59
2021/12/13 02:26:58;;;;;;;42.83;34.38;;;;;;;8.01;100.00;102523.91;5007913;28;20061;-60
2021/12/13 02:29:35;;;;;;;45.33;33.45;;;;;;;7.99;100.00;102522.91;5008515;28;20045;-60
2021/12/13 02:32:04;;;;;;;52.15;34.35;;;;;;;7.99;100.00;102520.31;5008223;28;20031;-60
2021/12/13 02:34:30;;;;;;;48.83;34.45;;;;;;;7.97;100.00;102511.59;5001597;28;20164;-59
2021/12/13 02:36:56;;;;;;;50.67;35.92;;;;;;;7.97;100.00;102516.78;5006335;28;20041;-59
2021/12/13 02:39:32;;;;;;;45.38;34.08;;;;;;;7.96;100.00;102514.97;5002620;28;20088;-58
2021/12/13 02:42:00;;;;;;;43.17;32.67;;;;;;;7.95;100.00;102513.19;5006830;28;20429;-59
2021/12/13 02:44:31;;;;;;;46.80;34.97;;;;;;;7.95;100.00;102518.34;5008489;28;20040;-59
2021/12/13 02:47:05;;;;;;;42.85;33.22;;;;;;;7.95;100.00;102520.94;5007929;28;20478;-59
2021/12/13 02:49:32;;;;;;;47.55;36.22;;;;;;;7.93;100.00;102526.84;5008267;28;20541;-59
2021/12/13 02:52:03;;;;;;;45.95;34.58;;;;;;;7.91;100.00;102523.31;5005958;28;20498;-58
2021/12/13 02:54:36;;;;;;;46.50;34.05;;;;;;;7.90;100.00;102516.31;5008266;28;20048;-59
2021/12/13 02:57:18;;;;;;;51.90;34.72;;;;;;;7.90;100.00;102528.31;5007679;28;20069;-58
2021/12/13 02:59:58;;;;;;;46.28;34.85;;;;;;;7.90;100.00;102521.50;5008501;28;20037;-59
2021/12/13 03:02:31;;;;;;;48.60;34.90;;;;;;;7.90;100.00;102515.41;5006564;28;21514;-59
2021/12/13 03:04:59;;;;;;;46.83;33.50;;;;;;;7.88;100.00;102520.47;5007738;28;20030;-58
2021/12/13 03:07:30;;;;;;;46.28;33.22;;;;;;;7.87;100.00;102529.03;5008223;28;20101;-57
2021/12/13 03:09:57;;;;;;;46.88;35.55;;;;;;;7.86;100.00;102528.91;5008017;28;20486;-58
2021/12/13 03:12:27;;;;;;;48.75;34.08;;;;;;;7.86;100.00;102532.38;5006648;28;20041;-59
2021/12/13 03:15:02;;;;;;;45.42;33.08;;;;;;;7.83;100.00;102523.53;5007623;28;20025;-59
2021/12/13 03:17:32;;;;;;;47.88;33.95;;;;;;;7.82;100.00;102517.47;5011247;28;20034;-57
2021/12/13 03:20:25;;;;;;;48.30;34.67;;;;;;;7.80;100.00;102508.72;5012219;28;20088;-58
2021/12/13 03:23:28;;;;;;;45.60;32.00;;;;;;;7.80;100.00;102509.63;5005284;28;20156;-58
2021/12/13 03:26:21;;;;;;;48.67;33.92;;;;;;;7.79;100.00;102517.25;5010090;28;20474;-59
2021/12/13 03:29:01;;;;;;;46.38;33.13;;;;;;;7.77;100.00;102529.16;5011908;28;20104;-59
2021/12/13 03:31:34;;;;;;;47.97;32.17;;;;;;;7.77;100.00;102534.34;5011194;28;20026;-59
2021/12/13 03:33:59;;;;;;;52.63;35.38;;;;;;;7.77;100.00;102530.03;5010650;28;20025;-58
2021/12/13 03:37:06;;;;;;;48.50;34.17;;;;;;;7.76;100.00;102537.69;5009888;28;20030;-58
2021/12/13 03:39:50;;;;;;;49.53;33.95;;;;;;;7.75;100.00;102530.75;5010103;28;20484;-58
2021/12/13 03:42:24;;;;;;;47.65;33.63;;;;;;;7.74;100.00;102532.41;5011341;28;20076;-58
2021/12/13 03:44:52;;;;;;;49.83;34.75;;;;;;;7.75;100.00;102523.91;5010820;28;20494;-58
2021/12/13 03:47:28;;;;;;;55.08;35.05;;;;;;;7.74;100.00;102528.94;5010873;28;20080;-59
2021/12/13 03:49:57;;;;;;;51.95;35.83;;;;;;;7.73;100.00;102524.56;5010707;28;20563;-58
2021/12/13 03:52:26;;;;;;;53.75;36.13;;;;;;;7.73;100.00;102528.06;5010718;28;20037;-58
2021/12/13 03:54:54;;;;;;;49.22;33.05;;;;;;;7.73;100.00;102529.72;5010551;28;20033;-58
2021/12/13 03:57:20;;;;;;;56.22;33.88;;;;;;;7.72;100.00;102526.25;5011035;28;20453;-57
2021/12/13 03:59:48;;;;;;;53.47;35.97;;;;;;;7.71;100.00;102528.72;5010442;28;20041;-58
2021/12/13 04:02:25;;;;;;;48.72;34.38;;;;;;;7.73;100.00;102532.31;5010699;28;20038;-58
2021/12/13 04:04:56;;;;;;;48.50;34.97;;;;;;;7.70;100.00;102525.25;5010990;28;20045;-58
2021/12/13 04:07:24;;;;;;;50.88;34.15;;;;;;;7.69;100.00;102531.19;5010767;28;20474;-59
2021/12/13 04:09:55;;;;;;;51.63;36.63;;;;;;;7.68;100.00;102525.13;5010362;28;20413;-57
2021/12/13 04:12:32;;;;;;;50.60;33.88;;;;;;;7.67;100.00;102528.50;5010538;28;20030;-59
2021/12/13 04:15:11;;;;;;;50.63;34.80;;;;;;;7.66;100.00;102524.13;5009583;28;20029;-59
2021/12/13 04:20:34;;;;;;;47.97;32.70;;;;;;;7.65;100.00;102532.66;5010786;28;20045;-58
2021/12/13 04:23:17;;;;;;;50.75;33.75;;;;;;;7.64;100.00;102538.63;5009944;28;20022;-58
2021/12/13 04:25:45;;;;;;;45.35;31.35;;;;;;;7.65;100.00;102535.25;5003239;28;20458;-58
2021/12/13 04:28:16;;;;;;;45.05;30.35;;;;;;;7.66;100.00;102536.16;5010913;28;20021;-59
2021/12/13 04:30:50;;;;;;;44.05;30.92;;;;;;;7.66;100.00;102538.72;5010171;28;20083;-59
2021/12/13 04:33:24;;;;;;;42.85;30.55;;;;;;;7.66;100.00;102533.56;5010318;28;20038;-58
2021/12/13 04:35:53;;;;;;;45.42;31.27;;;;;;;7.67;100.00;102537.94;5002694;28;20030;-58
2021/12/13 04:38:25;;;;;;;41.42;29.42;;;;;;;7.64;100.00;102543.78;5008903;28;20057;-59
2021/12/13 04:40:53;;;;;;;43.45;29.70;;;;;;;7.64;100.00;102538.63;5009728;28;20041;-59
2021/12/13 04:43:20;;;;;;;42.17;30.45;;;;;;;7.64;100.00;102543.78;5010203;28;20537;-59
2021/12/13 04:45:52;;;;;;;42.10;30.17;;;;;;;7.63;100.00;102547.13;5009503;28;20371;-60
2021/12/13 04:48:21;;;;;;;44.30;29.73;;;;;;;7.64;100.00;102543.78;5010121;28;20120;-58
2021/12/13 04:51:14;;;;;;;40.30;29.55;;;;;;;7.63;100.00;102536.81;5009397;28;20042;-59
2021/12/13 04:53:44;;;;;;;39.40;29.05;;;;;;;7.64;100.00;102532.56;5007402;28;20577;-57
2021/12/13 04:56:24;;;;;;;42.00;28.98;;;;;;;7.62;100.00;102529.88;5002125;28;20025;-59
2021/12/13 04:58:52;;;;;;;37.47;27.23;;;;;;;7.62;100.00;102524.72;5001522;28;20113;-58
2021/12/13 05:01:20;;;;;;;36.45;27.52;;;;;;;7.62;100.00;102531.53;5009504;28;20036;-59
2021/12/13 05:03:54;;;;;;;33.05;26.15;;;;;;;7.61;100.00;102528.06;5009762;28;20116;-59
2021/12/13 05:06:25;;;;;;;35.90;26.40;;;;;;;7.63;100.00;102535.91;5005083;28;20030;-58
2021/12/13 05:08:56;;;;;;;34.65;25.70;;;;;;;7.63;100.00;102535.91;5001866;28;20042;-58
2021/12/13 05:11:21;;;;;;;35.08;26.77;;;;;;;7.63;100.00;102536.81;5008850;28;20050;-59
2021/12/13 05:13:50;;;;;;;34.55;24.88;;;;;;;7.62;100.00;102529.88;5009839;28;20041;-59
2021/12/13 05:16:19;;;;;;;34.13;25.23;;;;;;;7.62;100.00;102535.03;5008746;28;20105;-58
2021/12/13 05:18:50;;;;;;;36.40;26.42;;;;;;;7.61;100.00;102537.50;5009952;28;20026;-58
2021/12/13 05:21:25;;;;;;;39.35;25.77;;;;;;;7.59;100.00;102542.53;5009177;28;20030;-59
2021/12/13 05:24:05;;;;;;;33.55;25.55;;;;;;;7.62;100.00;102544.44;5006947;28;20025;-59
2021/12/13 05:26:33;;;;;;;33.55;24.90;;;;;;;7.63;100.00;102541.06;5008066;28;20037;-59
2021/12/13 05:29:01;;;;;;;33.45;25.60;;;;;;;7.60;100.00;102536.59;5009412;28;20096;-59
2021/12/13 05:31:28;;;;;;;34.75;26.20;;;;;;;7.59;100.00;102539.06;5009055;28;20438;-59
2021/12/13 05:33:59;;;;;;;29.42;23.55;;;;;;;7.59;100.00;102534.78;5009304;28;20034;-58
2021/12/13 05:36:30;;;;;;;32.65;25.02;;;;;;;7.59;100.00;102542.53;5007724;28;20064;-59
2021/12/13 05:39:13;;;;;;;34.65;23.88;;;;;;;7.60;100.00;102541.75;5002955;28;20046;-59
2021/12/13 05:41:48;;;;;;;31.45;23.80;;;;;;;7.59;100.00;102539.94;5008544;28;20193;-59
2021/12/13 05:44:13;;;;;;;31.73;23.02;;;;;;;7.60;100.00;102543.44;5009228;28;20060;-58
2021/12/13 05:46:47;;;;;;;32.70;22.80;;;;;;;7.60;100.00;102546.03;5008858;28;20450;-59
2021/12/13 05:49:20;;;;;;;30.45;21.85;;;;;;;7.59;100.00;102554.56;5008633;28;20032;-59
2021/12/13 05:51:50;;;;;;;29.67;22.48;;;;;;;7.59;100.00;102541.66;5009303;28;20033;-59
2021/12/13 05:54:30;;;;;;;30.65;21.73;;;;;;;7.58;100.00;102543.34;5008631;28;20176;-59
2021/12/13 05:57:01;;;;;;;29.65;21.48;;;;;;;7.58;100.00;102540.75;5008526;28;20030;-59
2021/12/13 05:59:37;;;;;;;29.40;21.67;;;;;;;7.58;100.00;102538.16;5009174;28;20508;-59
2021/12/13 06:02:10;;;;;;;28.10;20.90;;;;;;;7.59;100.00;102555.44;5008744;28;20042;-58
2021/12/13 06:04:54;;;;;;;27.52;21.73;;;;;;;7.56;100.00;102547.47;5009162;28;20027;-58
2021/12/13 06:07:32;;;;;;;26.60;19.67;;;;;;;7.56;100.00;102547.47;5008762;28;20394;-59
2021/12/13 06:10:00;;;;;;;27.67;20.55;;;;;;;7.58;100.00;102548.50;5000701;28;20033;-58
2021/12/13 06:12:35;;;;;;;29.30;21.48;;;;;;;7.59;100.00;102545.13;5009134;28;20038;-59
2021/12/13 06:15:21;;;;;;;27.20;20.10;;;;;;;7.56;100.00;102547.47;5008210;28;20033;-59
2021/12/13 06:17:54;;;;;;;25.10;20.58;;;;;;;7.55;100.00;102558.59;5003985;28;20306;-59
2021/12/13 06:20:25;;;;;;;26.20;20.10;;;;;;;7.55;100.00;102558.59;5008425;28;20368;-59
2021/12/13 06:22:50;;;;;;;27.08;20.33;;;;;;;7.54;100.00;102552.53;5008243;28;20355;-60
2021/12/13 06:25:23;;;;;;;24.25;20.27;;;;;;;7.53;100.00;102555.00;5007780;28;20029;-57
2021/12/13 06:27:52;;;;;;;26.30;20.20;;;;;;;7.54;100.00;102561.94;5008640;28;20105;-57
2021/12/13 06:30:22;;;;;;;26.52;21.27;;;;;;;7.56;100.00;102560.38;5008401;28;20034;-58
2021/12/13 06:32:57;;;;;;;23.55;19.25;;;;;;;7.55;100.00;102567.25;5007286;28;20101;-58
2021/12/13 06:35:31;;;;;;;26.30;20.73;;;;;;;7.58;100.00;102569.13;5008859;28;20277;-59
2021/12/13 06:38:19;;;;;;;24.60;20.30;;;;;;;7.55;100.00;102567.25;5007918;28;20045;-57
2021/12/13 06:41:03;;;;;;;25.40;20.92;;;;;;;7.54;100.00;102560.28;5002008;28;20033;-58
2021/12/13 06:43:34;;;;;;;25.25;21.05;;;;;;;7.53;100.00;102561.06;5000593;28;20037;-59
2021/12/13 06:46:03;;;;;;;26.23;20.77;;;;;;;7.52;100.00;102573.88;5008789;28;20084;-59
2021/12/13 06:48:48;;;;;;;25.58;20.80;;;;;;;7.51;100.00;102577.22;5000630;28;20429;-59
2021/12/13 06:51:19;;;;;;;24.52;20.60;;;;;;;7.51;100.00;102579.78;5010752;28;20037;-59
2021/12/13 06:54:03;;;;;;;24.55;19.90;;;;;;;7.51;100.00;102580.69;5005171;28;20504;-58
2021/12/13 06:56:31;;;;;;;23.63;20.02;;;;;;;7.51;100.00;102579.78;5012476;28;20026;-58
2021/12/13 06:58:58;;;;;;;24.38;20.23;;;;;;;7.50;100.00;102589.22;5011551;28;20033;-60
2021/12/13 07:01:26;;;;;;;22.42;19.52;;;;;;;7.50;100.00;102583.19;5012673;28;20105;-58
2021/12/13 07:04:02;;;;;;;27.30;20.58;;;;;;;7.51;100.00;102592.69;5012545;28;20428;-57
2021/12/13 07:06:28;;;;;;;27.05;21.17;;;;;;;7.49;100.00;102582.25;5012330;28;20367;-59
2021/12/13 07:09:13;;;;;;;25.23;20.05;;;;;;;7.50;100.00;102576.31;5013204;28;20394;-59
2021/12/13 07:11:40;;;;;;;25.13;20.80;;;;;;;7.50;100.00;102591.78;5012258;28;20059;-58
2021/12/13 07:14:09;;;;;;;24.27;21.00;;;;;;;7.50;100.00;102596.94;5012520;28;20185;-59
2021/12/13 07:16:38;;;;;;;26.60;20.05;;;;;;;7.50;100.00;102596.94;5011815;28;20455;-58
2021/12/13 07:19:22;;;;;;;24.20;20.40;;;;;;;7.51;100.00;102597.84;5011806;28;20034;-58
2021/12/13 07:21:50;;;;;;;24.52;19.35;;;;;;;7.51;100.00;102595.28;5012350;28;20022;-59
2021/12/13 07:24:40;;;;;;;25.92;20.75;;;;;;;7.51;100.00;102600.44;5012094;28;20474;-59
2021/12/13 07:27:27;;;;;;;25.38;20.42;;;;;;;7.48;100.00;102598.53;5005100;28;20036;-58
2021/12/13 07:30:08;;;;;;;25.67;19.80;;;;;;;7.51;100.00;102600.44;5009572;28;20057;-59
2021/12/13 07:32:58;;;;;;;29.00;22.38;;;;;;;7.51;100.00;102611.66;5010441;28;20029;-58
2021/12/13 07:35:58;;;;;;;25.83;19.73;;;;;;;7.52;100.00;102604.81;5005360;28;20496;-57
2021/12/13 07:38:26;;;;;;;24.90;19.42;;;;;;;7.52;100.00;102605.69;4955216;28;20193;-58
2021/12/13 07:40:58;;;;;;;25.10;19.52;;;;;;;7.49;100.00;102605.47;4960410;28;20037;-58
2021/12/13 07:43:26;;;;;;;24.02;19.38;;;;;;;7.51;100.00;102603.91;4961126;28;20046;-59
2021/12/13 07:46:05;;;;;;;28.35;20.88;;;;;;;7.52;100.00;102610.84;4965900;28;20298;-59
2021/12/13 07:48:39;;;;;;;23.90;19.85;;;;;;;7.51;100.00;102614.25;4964752;28;20039;-57
2021/12/13 07:51:18;;;;;;;23.88;20.17;;;;;;;7.52;100.00;102615.16;4967495;28;20027;-59
2021/12/13 07:53:58;;;;;;;23.05;19.65;;;;;;;7.51;100.00;102618.50;4959782;28;20035;-59
2021/12/13 07:56:29;;;;;;;24.87;21.60;;;;;;;7.53;100.00;102624.66;4961389;28;20039;-59
2021/12/13 07:59:04;;;;;;;24.55;20.73;;;;;;;7.53;100.00;102632.41;4960375;28;20033;-59
2021/12/13 08:01:33;;;;;;;25.58;21.15;;;;;;;7.55;100.00;102630.84;4958724;28;20104;-59
2021/12/13 08:04:08;;;;;;;22.85;18.88;;;;;;;7.53;100.00;102627.25;4960733;28;20038;-60
2021/12/13 08:06:38;;;;;;;24.27;18.95;;;;;;;7.56;100.00;102637.78;4944097;28;20030;-59
2021/12/13 08:09:10;;;;;;;21.88;19.13;;;;;;;7.56;100.00;102630.03;4960746;28;20046;-60
2021/12/13 08:11:49;;;;;;;23.45;18.73;;;;;;;7.57;100.00;102624.13;4964573;28;20042;-59
2021/12/13 08:14:23;;;;;;;24.08;19.50;;;;;;;7.56;100.00;102624.88;4968156;28;20061;-59
2021/12/13 08:16:49;;;;;;;23.77;18.60;;;;;;;7.56;100.00;102635.19;5009445;28;20054;-58
2021/12/13 08:19:23;;;;;;;22.17;18.80;;;;;;;7.56;100.00;102622.31;5010376;28;20402;-58
2021/12/13 08:22:00;;;;;;;21.08;18.48;;;;;;;7.56;100.00;102632.63;5010479;28;20068;-57
2021/12/13 08:24:33;;;;;;;21.98;17.50;;;;;;;7.57;100.00;102629.28;5009166;28;20586;-57
2021/12/13 08:27:10;;;;;;;20.50;16.63;;;;;;;7.57;100.00;102629.28;5011098;28;20056;-57
2021/12/13 08:29:39;;;;;;;19.13;16.55;;;;;;;7.55;100.00;102628.25;5005569;28;20026;-58
2021/12/13 08:32:17;;;;;;;21.55;17.23;;;;;;;7.56;100.00;102630.03;5009400;28;20452;-58
2021/12/13 08:34:47;;;;;;;18.60;15.77;;;;;;;7.56;100.00;102627.47;5010139;28;20044;-58
2021/12/13 08:37:28;;;;;;;20.08;16.27;;;;;;;7.56;100.00;102630.03;5011120;28;20488;-58
2021/12/13 08:40:19;;;;;;;18.95;16.38;;;;;;;7.56;100.00;102619.72;5011464;28;20029;-58
2021/12/13 08:42:47;;;;;;;20.23;16.25;;;;;;;7.57;100.00;102619.84;5005908;28;20044;-58
2021/12/13 08:45:27;;;;;;;19.13;16.00;;;;;;;7.56;100.00;102628.38;5010612;28;20026;-59
2021/12/13 08:48:04;;;;;;;17.83;15.83;;;;;;;7.57;100.00;102634.44;5010731;28;20026;-58
2021/12/13 08:50:34;;;;;;;19.00;14.55;;;;;;;7.58;100.00;102633.63;5010657;28;20425;-58
2021/12/13 08:53:06;;;;;;;17.58;15.60;;;;;;;7.57;100.00;102635.31;5010931;28;20030;-58
2021/12/13 08:55:35;;;;;;;17.80;15.95;;;;;;;7.59;100.00;102632.84;5010452;28;20034;-58
2021/12/13 08:58:07;;;;;;;20.17;15.50;;;;;;;7.57;100.00;102631.84;5010140;28;20033;-58
2021/12/13 09:00:51;;;;;;;18.17;16.05;;;;;;;7.55;100.00;102629.16;5010885;28;20474;-59
2021/12/13 09:03:35;;;;;;;17.58;14.85;;;;;;;7.57;100.00;102639.59;5010481;28;20529;-57
2021/12/13 09:06:16;;;;;;;15.18;13.48;;;;;;;7.62;100.00;102632.19;5010737;28;20029;-58
2021/12/13 09:08:47;;;;;;;16.60;14.70;;;;;;;7.59;100.00;102638.00;5010100;28;20040;-59
2021/12/13 09:11:13;;;;;;;;;;;;;;;7.58;100.00;102628.47;5010153;28;20030;-58
2021/12/13 09:14:07;;;;;;;16.08;13.07;;;;;;;7.62;100.00;102633.09;5009151;28;20036;-58
2021/12/13 09:17:06;;;;;;;17.65;13.25;;;;;;;7.60;100.00;102636.31;5002857;28;20149;-58
2021/12/13 09:19:45;;;;;;;15.23;13.05;;;;;;;7.59;100.00;102638.00;5008698;28;20084;-58
2021/12/13 09:22:29;;;;;;;13.82;12.40;;;;;;;7.62;100.00;102642.50;5008563;28;20026;-57
2021/12/13 09:25:02;;;;;;;15.57;12.70;;;;;;;7.61;100.00;102640.72;5009170;28;20419;-58
2021/12/13 09:27:49;;;;;;;14.85;12.60;;;;;;;7.64;100.00;102647.00;5006100;28;20036;-57
2021/12/13 09:30:42;;;;;;;16.20;12.82;;;;;;;7.63;100.00;102660.66;5007958;28;20494;-59
2021/12/13 09:33:16;;;;;;;13.35;11.90;;;;;;;7.63;100.00;102655.50;5003451;28;20457;-57
2021/12/13 09:36:00;;;;;;;17.77;13.38;;;;;;;7.63;100.00;102663.25;5007174;28;20033;-58
2021/12/13 09:38:42;;;;;;;14.55;12.15;;;;;;;7.64;100.00;102670.22;5009583;28;20045;-58
2021/12/13 09:41:13;;;;;;;14.90;12.80;;;;;;;7.64;100.00;102671.91;5008725;28;20032;-58
2021/12/13 09:43:46;;;;;;;;;;;;;;;7.65;100.00;102678.84;5007797;28;20129;-60
2021/12/13 09:46:14;;;;;;;13.35;11.80;;;;;;;7.63;100.00;102694.22;5007504;28;20422;-58
2021/12/13 09:48:48;;;;;;;14.02;12.05;;;;;;;7.64;100.00;102696.03;5007786;28;20034;-59
2021/12/13 09:51:27;;;;;;;14.07;11.50;;;;;;;7.66;100.00;102702.19;5002699;28;20091;-60
2021/12/13 09:53:56;;;;;;;13.77;11.60;;;;;;;7.67;100.00;102705.66;5008319;28;20034;-58
2021/12/13 09:56:28;;;;;;;11.75;10.52;;;;;;;7.67;100.00;102706.56;5008213;28;20026;-58
2021/12/13 09:58:59;;;;;;;12.05;10.80;;;;;;;7.68;100.00;102716.09;5008791;28;20029;-59
2021/12/13 10:01:31;;;;;;;13.10;11.70;;;;;;;7.69;100.00;102717.00;5007822;28;20033;-58
2021/12/13 10:04:12;;;;;;;10.77;9.68;;;;;;;7.69;100.00;102707.59;5006019;28;20411;-58
2021/12/13 10:06:48;;;;;;;10.82;9.57;;;;;;;7.74;100.00;102717.34;5007502;28;20057;-58
2021/12/13 10:09:56;;;;;;;10.45;9.40;;;;;;;7.73;100.00;102712.97;5007975;28;20471;-58
2021/12/13 10:12:28;;;;;;;10.35;9.45;;;;;;;7.72;100.00;102711.19;5007387;28;20494;-58
2021/12/13 10:15:18;;;;;;;10.18;9.02;;;;;;;7.71;100.00;102699.06;5007732;28;20025;-58
2021/12/13 10:17:47;;;;;;;10.03;9.03;;;;;;;7.69;100.00;102704.09;5008444;28;20352;-58
2021/12/13 10:20:49;;;;;;;10.10;9.05;;;;;;;7.70;100.00;102698.13;5008190;28;20478;-59
2021/12/13 10:23:52;;;;;;;8.98;8.07;;;;;;;7.69;100.00;102696.34;5007373;28;20013;-58
2021/12/13 10:26:18;;;;;;;8.25;7.22;;;;;;;7.69;100.00;102702.44;5011578;28;20203;-58
2021/12/13 10:28:56;;;;;;;8.55;7.63;;;;;;;7.70;100.00;102692.97;5008796;28;20061;-58
2021/12/13 10:31:30;;;;;;;9.75;8.07;;;;;;;7.69;100.00;102699.84;5008798;28;20029;-56
2021/12/13 10:34:29;;;;;;;10.15;8.30;;;;;;;7.71;100.00;102697.38;5007250;28;20384;-58
2021/12/13 10:37:08;;;;;;;8.13;7.32;;;;;;;7.72;100.00;102695.69;5011252;28;20032;-59
2021/12/13 10:42:36;;;;;;;9.00;7.70;;;;;;;7.75;100.00;102688.19;5008992;28;20036;-58
2021/12/13 10:48:27;;;;;;;7.45;6.72;;;;;;;7.76;100.00;102685.69;5004724;28;20324;-58
2021/12/13 10:51:36;;;;;;;9.70;6.95;;;;;;;7.73;100.00;102685.50;5009782;28;20036;-58
2021/12/13 10:54:19;;;;;;;7.32;6.13;;;;;;;7.76;100.00;102688.28;5006246;28;20037;-60
2021/12/13 10:56:50;;;;;;;6.93;6.25;;;;;;;7.78;100.00;102686.72;5000803;28;20022;-59
2021/12/13 10:59:26;;;;;;;;;;;;;;;7.78;100.00;102680.66;5010212;28;20034;-59
2021/12/13 11:01:56;;;;;;;7.25;6.47;;;;;;;7.78;100.00;102689.31;5009964;28;19913;-58
2021/12/13 11:04:44;;;;;;;8.98;6.72;;;;;;;7.77;100.00;102690.06;5008987;28;20100;-59
2021/12/13 11:07:11;;;;;;;8.38;6.03;;;;;;;7.78;100.00;102685.81;5006668;28;20030;-59
2021/12/13 11:09:56;;;;;;;7.57;6.50;;;;;;;7.82;100.00;102677.53;5010470;28;20029;-59
2021/12/13 11:12:36;;;;;;;7.35;6.20;;;;;;;7.81;100.00;102665.38;5008320;28;20037;-60
2021/12/13 11:15:41;;;;;;;7.07;6.38;;;;;;;7.82;100.00;102672.34;5010761;28;20389;-59
2021/12/13 11:18:11;;;;;;;6.85;6.25;;;;;;;7.84;100.00;102670.78;5006487;28;20060;-58
2021/12/13 11:20:44;;;;;;;6.75;5.90;;;;;;;7.85;100.00;102671.66;5010260;28;20036;-58
2021/12/13 11:23:11;;;;;;;6.88;6.28;;;;;;;7.86;100.00;102669.19;5008281;28;20057;-57
2021/12/13 11:25:44;;;;;;;6.97;6.35;;;;;;;7.85;100.00;102667.41;5010946;28;20026;-58
2021/12/13 11:28:14;;;;;;;7.35;5.88;;;;;;;7.85;100.00;102667.41;5010394;28;20029;-58
2021/12/13 11:30:57;;;;;;;6.40;5.60;;;;;;;7.85;100.00;102672.56;5010756;28;20030;-58
2021/12/13 11:33:37;;;;;;;6.50;5.63;;;;;;;7.87;100.00;102671.00;5009411;28;20034;-58
2021/12/13 11:36:43;;;;;;;6.00;5.13;;;;;;;7.88;100.00;102671.91;5005023;28;20071;-59
2021/12/13 11:39:25;;;;;;;6.60;6.00;;;;;;;7.87;100.00;102676.16;5003459;28;20301;-60
2021/12/13 11:42:24;;;;;;;6.93;6.22;;;;;;;7.88;100.00;102667.63;5006313;28;20049;-57
2021/12/13 11:45:30;;;;;;;6.32;5.72;;;;;;;7.90;100.00;102666.06;5008516;28;20058;-59
2021/12/13 11:48:30;;;;;;;5.97;5.47;;;;;;;7.89;100.00;102668.53;5009439;28;20064;-59
2021/12/13 11:51:37;;;;;;;6.10;5.07;;;;;;;7.89;100.00;102663.38;5007564;28;20471;-58
2021/12/13 11:54:27;;;;;;;6.65;5.63;;;;;;;7.89;100.00;102664.28;5010967;28;20034;-59
2021/12/13 11:57:22;;;;;;;6.00;5.00;;;;;;;7.90;100.00;102666.06;5010769;28;20030;-58
2021/12/13 12:00:03;;;;;;;6.32;4.90;;;;;;;7.93;100.00;102660.22;5008790;28;20041;-59
2021/12/13 12:02:46;;;;;;;6.70;5.03;;;;;;;7.94;100.00;102664.59;5009668;28;20033;-59
2021/12/13 12:05:12;;;;;;;5.93;5.32;;;;;;;7.95;100.00;102662.91;5010243;28;20026;-59
2021/12/13 12:08:15;;;;;;;5.95;4.72;;;;;;;7.92;100.00;102654.16;5008621;28;20529;-58